Time;durP1;ratioP1;P1;durP2;ratioP2;P2;SDS_P1;SDS_P2;PMS_P1;PMS_P2;Temp;Humidity;BMP_temperature;BMP_pressure;BME280_temperature;BME280_humidity;BME280_pressure;Samples;Min_cycle;Max_cycle;Signal;HPM_P1;HPM_P2
2022/12/06 00:00:25;;;;;;;125.78;73.82;;;;;;;29.61;56.95;100849.72;5090880;27;66075;-37
2022/12/06 00:02:57;;;;;;;114.40;64.60;;;;;;;29.61;57.76;100849.72;5081392;27;70320;-36
2022/12/06 00:05:30;;;;;;;94.73;59.87;;;;;;;29.69;58.95;100857.66;5086497;27;65958;-41
2022/12/06 00:08:01;;;;;;;99.43;57.72;;;;;;;29.69;60.04;100852.25;5080562;27;68635;-36
2022/12/06 00:10:35;;;;;;;114.30;72.47;;;;;;;29.38;60.71;100802.41;5088445;27;66541;-36
2022/12/06 00:13:06;;;;;;;124.25;83.65;;;;;;;29.81;61.52;100866.78;5092131;27;70576;-36
2022/12/06 00:15:37;;;;;;;123.28;86.22;;;;;;;29.84;62.30;100860.94;5079812;27;66255;-36
2022/12/06 00:18:08;;;;;;;122.50;81.43;;;;;;;29.73;62.88;100849.97;5087287;27;69487;-36
2022/12/06 00:20:40;;;;;;;105.03;74.85;;;;;;;29.82;62.49;100856.78;5086803;27;66095;-36
2022/12/06 00:23:11;;;;;;;95.53;66.18;;;;;;;29.95;63.15;100880.22;5084034;27;70252;-36
2022/12/06 00:25:43;;;;;;;97.53;63.67;;;;;;;29.99;63.30;100874.19;5084853;27;66154;-36
2022/12/06 00:28:14;;;;;;;98.40;61.93;;;;;;;30.01;69.30;100873.97;5079326;27;69865;-39
2022/12/06 00:30:45;;;;;;;85.80;54.50;;;;;;;30.02;70.37;100878.34;5087799;27;65411;-36
2022/12/06 00:33:16;;;;;;;87.80;50.33;;;;;;;29.97;69.38;100880.84;5088666;27;70301;-35
2022/12/06 00:35:55;;;;;;;85.25;44.08;;;;;;;29.66;70.82;100841.03;5084311;27;65643;-35
2022/12/06 00:38:28;;;;;;;76.40;42.83;;;;;;;30.04;70.59;100898.72;5081288;27;70468;-34
2022/12/06 00:41:07;;;;;;;70.07;39.03;;;;;;;29.95;71.36;100883.78;5089203;27;43076;-35
2022/12/06 00:43:38;;;;;;;65.45;36.28;;;;;;;29.81;71.40;100872.19;5081164;27;70475;-35
2022/12/06 00:46:14;;;;;;;63.67;33.83;;;;;;;29.56;68.95;100823.38;5096000;27;65202;-33
2022/12/06 00:48:46;;;;;;;45.97;28.33;;;;;;;30.10;67.29;100915.13;5080955;27;70197;-34
2022/12/06 00:51:19;;;;;;;38.28;25.60;;;;;;;29.91;66.02;100881.72;5090217;27;66403;-34
2022/12/06 00:53:50;;;;;;;33.83;24.58;;;;;;;30.01;66.00;100903.72;5090631;27;70110;-33
2022/12/06 00:56:22;;;;;;;31.73;23.55;;;;;;;30.09;65.54;100903.50;5093470;27;66929;-33
2022/12/06 00:58:53;;;;;;;33.88;22.73;;;;;;;30.06;64.91;100901.19;5087695;27;68498;-33
2022/12/06 01:01:30;;;;;;;38.00;22.67;;;;;;;30.20;65.21;100918.19;5091466;27;66308;-34
2022/12/06 01:04:05;;;;;;;34.22;21.88;;;;;;;30.18;64.63;100918.44;5083553;27;70470;-35
2022/12/06 01:06:37;;;;;;;31.60;20.17;;;;;;;30.22;64.60;100922.38;5081651;27;65728;-36
2022/12/06 01:09:10;;;;;;;26.50;19.52;;;;;;;29.73;64.67;100842.69;5085206;27;70597;-33
2022/12/06 01:11:41;;;;;;;28.80;19.63;;;;;;;30.25;64.41;100931.94;5088035;27;65562;-36
2022/12/06 01:14:13;;;;;;;27.50;18.92;;;;;;;30.24;64.28;100935.72;5094863;27;70486;-33
2022/12/06 01:16:44;;;;;;;23.85;18.92;;;;;;;30.26;64.16;100934.47;5089149;27;65367;-34
2022/12/06 01:19:15;;;;;;;24.57;18.30;;;;;;;30.21;63.99;100920.72;5090976;27;69747;-35
2022/12/06 01:21:48;;;;;;;29.00;17.65;;;;;;;29.11;63.99;100738.69;5080292;27;65059;-34
2022/12/06 01:24:19;;;;;;;24.05;17.17;;;;;;;30.31;63.85;100930.25;5081627;27;70572;-35
2022/12/06 01:26:51;;;;;;;22.17;17.88;;;;;;;30.30;64.23;100928.63;5084406;27;65606;-35
2022/12/06 01:29:22;;;;;;;24.05;16.45;;;;;;;30.30;64.17;100929.44;5064359;27;69239;-33
2022/12/06 01:31:54;;;;;;;18.88;16.10;;;;;;;30.30;63.83;100939.44;5094990;27;65497;-34
2022/12/06 01:34:25;;;;;;;22.17;15.90;;;;;;;30.16;63.86;100903.47;5084352;27;68648;-34
2022/12/06 01:36:56;;;;;;;20.33;15.40;;;;;;;30.34;63.84;100932.53;5088003;27;66361;-33
2022/12/06 01:39:28;;;;;;;21.33;16.00;;;;;;;30.35;63.95;100928.81;5085192;27;70793;-33
2022/12/06 01:41:59;;;;;;;22.03;15.07;;;;;;;30.36;63.55;100933.16;5090137;27;66114;-35
2022/12/06 01:44:50;;;;;;;23.43;15.33;;;;;;;30.32;63.24;100935.47;5094076;27;70192;-35
2022/12/06 01:47:38;;;;;;;17.10;14.00;;;;;;;29.79;63.18;100841.81;5093889;27;65584;-34
2022/12/06 01:50:22;;;;;;;20.98;13.82;;;;;;;30.42;63.21;100932.28;5091024;27;70625;-33
2022/12/06 01:53:02;;;;;;;17.08;13.60;;;;;;;29.94;62.78;100849.66;5092921;27;66255;-38
2022/12/06 01:55:36;;;;;;;15.30;13.70;;;;;;;29.94;63.08;100854.22;5094236;27;69781;-33
2022/12/06 01:58:16;;;;;;;19.63;13.15;;;;;;;30.35;63.21;100926.09;5085923;27;65690;-33
2022/12/06 02:00:48;;;;;;;13.73;12.45;;;;;;;30.44;63.17;100938.31;5086761;27;70112;-34
2022/12/06 02:03:23;;;;;;;16.27;12.77;;;;;;;30.23;63.12;100902.41;5092609;27;65406;-34
2022/12/06 02:05:56;;;;;;;13.80;12.38;;;;;;;30.45;62.99;100937.25;5090186;27;69234;-36
2022/12/06 02:08:29;;;;;;;13.02;11.82;;;;;;;30.34;63.26;100908.19;5093376;27;65683;-34
2022/12/06 02:11:02;;;;;;;13.88;12.35;;;;;;;30.50;62.99;100940.16;5087129;27;69948;-38
2022/12/06 02:13:36;;;;;;;13.25;11.93;;;;;;;30.44;63.04;100924.78;5086767;27;66758;-34
2022/12/06 02:16:32;;;;;;;11.93;10.75;;;;;;;30.54;62.87;100937.88;5085941;27;69295;-35
2022/12/06 02:19:15;;;;;;;11.48;10.65;;;;;;;30.53;62.66;100937.00;5088688;27;66802;-34
2022/12/06 02:22:08;;;;;;;11.38;10.23;;;;;;;30.46;63.09;100933.53;5086344;27;69927;-36
2022/12/06 02:25:02;;;;;;;13.25;10.40;;;;;;;30.59;62.65;100938.88;5086456;27;66271;-34
2022/12/06 02:27:54;;;;;;;13.98;11.50;;;;;;;30.55;63.09;100936.81;5094115;27;69783;-34
2022/12/06 02:30:44;;;;;;;11.63;10.35;;;;;;;30.59;62.44;100938.88;5085502;27;65839;-34
2022/12/06 02:33:25;;;;;;;15.63;11.02;;;;;;;30.45;63.16;100908.34;5083624;27;70448;-33
2022/12/06 02:36:11;;;;;;;11.60;10.30;;;;;;;30.57;62.63;100935.56;5083669;27;66382;-37
2022/12/06 02:39:00;;;;;;;10.80;9.88;;;;;;;30.47;62.76;100903.53;5089069;27;69520;-35
2022/12/06 02:42:00;;;;;;;11.57;10.27;;;;;;;30.54;63.03;100930.56;5087649;27;66953;-34
2022/12/06 02:44:41;;;;;;;11.05;10.05;;;;;;;30.41;62.75;100876.50;5091237;27;69739;-33
2022/12/06 02:47:16;;;;;;;12.57;9.80;;;;;;;30.25;62.49;100851.59;5095125;27;65697;-34
2022/12/06 02:49:49;;;;;;;11.15;10.10;;;;;;;30.53;62.63;100891.00;5082400;27;68845;-33
2022/12/06 02:52:25;;;;;;;10.27;9.23;;;;;;;30.09;62.35;100819.63;5088663;27;65788;-34
2022/12/06 02:55:00;;;;;;;11.68;10.57;;;;;;;30.66;62.38;100907.16;5088513;27;70233;-34
2022/12/06 02:57:47;;;;;;;11.80;10.43;;;;;;;30.69;62.65;100925.69;5085246;27;64262;-36
2022/12/06 03:00:37;;;;;;;16.13;10.50;;;;;;;30.72;62.83;100922.53;5094987;27;70161;-34
2022/12/06 03:03:08;;;;;;;10.40;9.40;;;;;;;30.77;62.03;100921.06;5091918;27;66313;-34
2022/12/06 03:05:55;;;;;;;12.32;9.80;;;;;;;30.23;62.31;100826.66;5093525;27;71749;-36
2022/12/06 03:08:41;;;;;;;10.15;9.10;;;;;;;30.78;62.33;100914.59;5093133;27;66048;-36
2022/12/06 03:11:13;;;;;;;10.43;9.52;;;;;;;30.82;61.89;100902.31;5085983;27;70315;-34
2022/12/06 03:13:49;;;;;;;14.88;9.65;;;;;;;30.83;61.96;100896.66;5086880;27;66097;-34
2022/12/06 03:16:31;;;;;;;9.88;9.05;;;;;;;30.85;62.22;100901.88;5086685;27;70140;-33
2022/12/06 03:19:13;;;;;;;9.98;9.05;;;;;;;30.69;62.14;100868.81;5090473;27;66007;-33
2022/12/06 03:22:09;;;;;;;10.45;9.45;;;;;;;30.81;62.10;100898.75;5091196;27;69696;-35
2022/12/06 03:24:44;;;;;;;11.25;10.25;;;;;;;30.88;61.76;100894.13;5076129;27;67608;-33
2022/12/06 03:27:18;;;;;;;10.18;9.27;;;;;;;30.43;62.14;100804.06;5081505;27;70644;-34
2022/12/06 03:29:58;;;;;;;9.10;8.30;;;;;;;30.57;61.85;100811.03;5082718;27;66612;-35
2022/12/06 03:32:32;;;;;;;9.90;9.00;;;;;;;30.98;61.67;100888.22;5080126;27;70247;-34
2022/12/06 03:35:08;;;;;;;10.13;9.32;;;;;;;30.55;61.72;100801.47;5087410;27;65682;-35
2022/12/06 03:37:43;;;;;;;10.43;9.52;;;;;;;31.00;61.79;100874.44;5088637;27;70341;-34
2022/12/06 03:40:28;;;;;;;10.35;9.43;;;;;;;30.52;61.49;100785.66;5091035;27;65561;-34
2022/12/06 03:43:00;;;;;;;10.38;9.35;;;;;;;31.04;61.83;100860.25;5092373;27;69704;-33
2022/12/06 03:45:52;;;;;;;10.10;9.32;;;;;;;31.02;61.72;100867.75;5086388;27;66623;-34
2022/12/06 03:48:32;;;;;;;10.10;9.10;;;;;;;30.56;61.73;100771.44;5084034;27;70008;-33
2022/12/06 03:51:10;;;;;;;9.88;9.00;;;;;;;31.13;61.38;100852.66;5092066;27;66551;-34
2022/12/06 03:53:51;;;;;;;10.43;9.48;;;;;;;31.12;61.44;100851.84;5089573;27;69732;-33
2022/12/06 03:56:23;;;;;;;9.85;9.20;;;;;;;31.16;61.29;100844.09;5086906;27;65935;-33
2022/12/06 03:58:55;;;;;;;9.88;9.07;;;;;;;31.20;61.18;100852.59;5082240;27;69865;-34
2022/12/06 04:01:26;;;;;;;10.32;9.48;;;;;;;31.19;61.12;100842.81;5084826;27;65722;-33
2022/12/06 04:03:58;;;;;;;;;;;;;;;30.90;62.08;100837.88;5079405;27;69963;-33
2022/12/06 04:06:29;;;;;;;9.27;8.43;;;;;;;31.21;60.84;100827.16;5098501;27;65323;-34
2022/12/06 04:11:49;;;;;;;9.93;8.95;;;;;;;31.21;60.82;100810.91;5086702;27;66927;-34
2022/12/06 04:14:21;;;;;;;10.00;9.20;;;;;;;31.28;60.91;100808.94;5088019;27;69402;-35
2022/12/06 04:19:41;;;;;;;10.50;9.50;;;;;;;31.24;60.90;100800.44;5082240;27;69682;-34
2022/12/06 04:25:07;;;;;;;9.77;8.52;;;;;;;31.37;60.33;100804.91;5080315;27;69853;-33
2022/12/06 04:38:55;;;;;;;10.43;9.55;;;;;;;31.44;60.36;100778.56;5082780;27;66102;-34
2022/12/06 04:44:16;;;;;;;10.00;9.20;;;;;;;31.49;60.36;100781.44;5087535;27;65635;-34
2022/12/06 04:46:47;;;;;;;10.43;9.30;;;;;;;31.43;60.45;100771.50;5079698;27;69274;-35
2022/12/06 04:49:18;;;;;;;10.25;9.23;;;;;;;31.41;60.48;100762.75;5082939;27;65894;-34
2022/12/06 04:51:51;;;;;;;10.50;9.57;;;;;;;31.41;60.63;100746.50;5079302;27;69645;-36
2022/12/06 04:54:23;;;;;;;10.13;9.23;;;;;;;31.41;60.38;100742.97;5087007;27;66375;-35
2022/12/06 04:56:56;;;;;;;10.77;9.60;;;;;;;31.53;60.34;100755.50;5086635;27;70431;-34
2022/12/06 04:59:28;;;;;;;10.90;9.15;;;;;;;31.54;60.57;100757.19;5095928;27;65160;-34
2022/12/06 05:01:59;;;;;;;10.80;9.43;;;;;;;31.54;60.61;100750.94;5079879;27;70341;-36
2022/12/06 05:04:31;;;;;;;10.50;9.43;;;;;;;31.40;60.84;100723.16;5079219;27;66286;-33
2022/12/06 05:07:02;;;;;;;9.82;8.68;;;;;;;31.55;60.62;100744.44;5085586;27;69361;-33
2022/12/06 05:09:33;;;;;;;10.48;8.93;;;;;;;31.42;60.84;100710.19;5080491;27;67373;-34
2022/12/06 05:12:04;;;;;;;11.53;9.40;;;;;;;31.59;60.48;100738.34;5079040;27;70019;-35
2022/12/06 05:14:35;;;;;;;9.23;8.33;;;;;;;31.55;60.62;100720.88;5086862;27;66038;-33
2022/12/06 05:17:07;;;;;;;9.43;8.63;;;;;;;31.58;60.38;100725.81;5084778;27;70488;-35
2022/12/06 05:19:38;;;;;;;9.30;8.50;;;;;;;31.53;60.58;100695.84;5082322;27;66655;-39
2022/12/06 05:22:09;;;;;;;9.77;8.70;;;;;;;31.67;60.35;100720.09;5080735;27;69324;-38
2022/12/06 05:24:41;;;;;;;9.67;8.77;;;;;;;31.67;60.29;100711.94;5081350;27;66316;-35
2022/12/06 05:27:13;;;;;;;9.65;8.88;;;;;;;31.71;60.02;100708.56;5083755;27;69590;-35
2022/12/06 05:29:44;;;;;;;11.00;9.25;;;;;;;31.31;60.50;100648.59;5083104;27;63773;-35
2022/12/06 05:32:16;;;;;;;9.90;8.75;;;;;;;31.64;60.46;100696.13;5084846;27;70210;-35
2022/12/06 05:34:47;;;;;;;9.03;8.10;;;;;;;31.73;60.51;100705.59;5100625;27;66366;-34
2022/12/06 05:37:18;;;;;;;8.97;8.17;;;;;;;31.69;60.11;100690.84;5085066;27;69774;-36
2022/12/06 05:39:49;;;;;;;8.77;8.07;;;;;;;31.74;60.31;100693.72;5066047;27;66059;-36
2022/12/06 05:42:20;;;;;;;9.27;8.57;;;;;;;31.72;60.28;100672.22;5081431;27;69396;-34
2022/12/06 05:44:51;;;;;;;10.95;9.02;;;;;;;31.82;60.28;100677.13;5083943;27;67693;-37
2022/12/06 05:47:23;;;;;;;9.13;8.35;;;;;;;31.66;60.25;100634.38;5081203;27;69641;-35
2022/12/06 05:49:54;;;;;;;12.93;8.70;;;;;;;31.82;59.97;100660.84;5101840;27;66240;-37
2022/12/06 05:52:25;;;;;;;9.27;8.38;;;;;;;31.87;59.95;100652.00;5080568;27;69444;-36
2022/12/06 05:54:57;;;;;;;8.98;8.18;;;;;;;31.88;59.78;100640.91;5088391;27;65453;-34
2022/12/06 05:57:28;;;;;;;8.80;8.10;;;;;;;31.86;59.72;100628.66;5086580;27;69945;-34
2022/12/06 05:59:59;;;;;;;9.07;8.30;;;;;;;31.92;59.97;100633.97;5087325;27;66573;-34
2022/12/06 06:02:34;;;;;;;8.93;8.20;;;;;;;31.60;59.81;100565.63;5084687;27;70198;-34
2022/12/06 06:05:06;;;;;;;8.75;8.05;;;;;;;31.96;59.79;100621.63;5093075;27;65786;-33
2022/12/06 06:07:38;;;;;;;9.70;8.45;;;;;;;31.96;59.50;100605.34;5092632;27;70225;-33
2022/12/06 06:10:09;;;;;;;7.82;7.22;;;;;;;31.95;59.69;100595.53;5085870;27;65794;-34
2022/12/06 06:12:41;;;;;;;8.57;7.90;;;;;;;31.96;59.77;100589.06;5086958;27;69595;-34
2022/12/06 06:15:13;;;;;;;8.55;7.93;;;;;;;32.03;59.55;100597.09;5085865;27;65319;-35
2022/12/06 06:17:44;;;;;;;8.32;7.60;;;;;;;32.05;59.33;100589.53;5089024;27;70241;-34
2022/12/06 06:20:15;;;;;;;9.43;8.63;;;;;;;31.95;59.57;100573.00;5086613;27;65505;-34
2022/12/06 06:22:46;;;;;;;8.90;8.20;;;;;;;32.01;59.22;100578.34;5086744;27;70621;-33
2022/12/06 06:25:18;;;;;;;8.33;7.63;;;;;;;32.01;59.35;100575.63;5089285;27;66546;-36
2022/12/06 06:27:50;;;;;;;9.38;7.68;;;;;;;32.11;59.19;100588.59;5089650;27;70058;-34
2022/12/06 06:30:21;;;;;;;7.40;6.85;;;;;;;32.11;59.68;100579.63;5088227;27;65959;-35
2022/12/06 06:32:52;;;;;;;8.00;7.40;;;;;;;32.07;59.44;100565.72;5093355;27;70468;-33
2022/12/06 06:35:23;;;;;;;7.87;7.37;;;;;;;32.12;59.24;100567.72;5090256;27;65382;-34
2022/12/06 06:37:54;;;;;;;7.63;7.13;;;;;;;32.00;59.27;100537.88;5088552;27;70030;-34
2022/12/06 06:40:27;;;;;;;7.75;7.15;;;;;;;32.10;59.36;100556.28;5090305;27;65886;-34
2022/12/06 06:43:16;;;;;;;7.65;7.10;;;;;;;32.15;58.89;100556.38;5089027;27;69304;-34
2022/12/06 06:45:56;;;;;;;8.55;7.78;;;;;;;31.81;58.63;100489.13;5088035;27;64953;-33
2022/12/06 06:48:32;;;;;;;9.18;7.63;;;;;;;32.20;58.87;100553.78;5087492;27;70204;-34
2022/12/06 06:51:11;;;;;;;8.15;7.45;;;;;;;32.12;58.80;100522.41;5084157;27;66556;-33
2022/12/06 06:53:43;;;;;;;7.53;7.03;;;;;;;32.24;58.86;100533.25;5086477;27;69303;-34
2022/12/06 06:56:14;;;;;;;8.23;7.38;;;;;;;32.18;58.99;100512.47;5091842;27;66143;-34
2022/12/06 06:58:46;;;;;;;;;;;;;;;31.94;59.46;100523.38;5089743;27;70258;-34
2022/12/06 07:01:19;;;;;;;7.75;7.05;;;;;;;32.12;58.76;100503.41;5083397;27;67474;-35
2022/12/06 07:03:50;;;;;;;8.00;7.40;;;;;;;32.25;58.56;100524.03;5086018;27;69968;-40
2022/12/06 07:06:22;;;;;;;7.57;6.93;;;;;;;32.26;58.71;100512.13;5082177;27;66640;-36
2022/12/06 07:08:53;;;;;;;7.70;7.10;;;;;;;32.28;58.59;100507.28;5087636;27;69308;-35
2022/12/06 07:11:24;;;;;;;7.75;7.10;;;;;;;32.29;58.56;100498.09;5085883;27;66114;-34
2022/12/06 07:13:55;;;;;;;8.03;7.43;;;;;;;32.27;58.90;100494.78;5085987;27;69720;-36
2022/12/06 07:16:26;;;;;;;7.77;7.17;;;;;;;32.31;58.55;100490.50;5089379;27;66522;-34
2022/12/06 07:18:57;;;;;;;8.27;7.43;;;;;;;32.28;58.37;100482.84;5087796;27;69622;-33
2022/12/06 07:21:34;;;;;;;8.38;7.68;;;;;;;32.35;58.61;100486.28;5090275;27;66516;-34
2022/12/06 07:24:06;;;;;;;8.27;7.60;;;;;;;32.33;58.52;100477.53;5083214;27;70233;-34
2022/12/06 07:26:38;;;;;;;7.90;7.28;;;;;;;32.34;58.27;100481.06;5083693;27;66438;-35
2022/12/06 07:29:09;;;;;;;8.70;7.90;;;;;;;32.37;58.55;100478.69;5075901;27;70122;-34
2022/12/06 07:31:40;;;;;;;8.43;7.67;;;;;;;32.38;58.39;100479.53;5084244;27;65727;-37
2022/12/06 07:34:11;;;;;;;10.47;8.50;;;;;;;32.34;58.19;100468.31;5087453;27;70626;-34
2022/12/06 07:36:42;;;;;;;10.97;8.00;;;;;;;32.40;58.40;100485.53;5083581;27;64716;-34
2022/12/06 07:39:13;;;;;;;9.70;8.87;;;;;;;32.41;58.44;100479.06;5087447;27;70374;-35
2022/12/06 07:45:03;;;;;;;9.48;8.70;;;;;;;32.31;58.31;100447.09;5055929;27;70034;-35
2022/12/06 07:47:36;;;;;;;9.75;8.90;;;;;;;32.40;58.87;100470.09;5083703;27;66109;-33
2022/12/06 07:50:11;;;;;;;10.38;8.48;;;;;;;31.97;58.79;100392.66;5083291;27;70148;-35
2022/12/06 07:52:48;;;;;;;8.85;8.25;;;;;;;32.44;58.62;100463.09;5081433;27;64433;-36
2022/12/06 07:55:20;;;;;;;9.60;8.77;;;;;;;32.47;58.57;100468.09;5087133;27;69925;-34
2022/12/06 07:57:52;;;;;;;10.27;8.20;;;;;;;32.40;58.40;100461.09;5087738;27;66539;-34
2022/12/06 08:00:23;;;;;;;9.70;8.77;;;;;;;32.47;58.93;100461.84;5090180;27;70157;-36
2022/12/06 08:02:54;;;;;;;11.20;9.03;;;;;;;32.48;58.71;100458.88;5087896;27;65580;-36
2022/12/06 08:05:25;;;;;;;9.82;8.77;;;;;;;32.49;58.83;100460.53;5086550;27;70128;-34
2022/12/06 08:07:56;;;;;;;10.13;9.23;;;;;;;32.45;58.67;100447.63;5084594;27;65934;-35
2022/12/06 08:10:28;;;;;;;11.18;9.35;;;;;;;32.51;58.67;100456.75;5088843;27;69339;-35
2022/12/06 08:12:59;;;;;;;8.63;7.87;;;;;;;32.49;58.59;100449.66;5088538;27;66911;-36
2022/12/06 08:15:30;;;;;;;9.33;8.57;;;;;;;32.42;58.39;100435.38;5086775;27;70581;-37
2022/12/06 08:18:01;;;;;;;10.65;8.27;;;;;;;32.54;58.62;100450.81;5084384;27;65974;-35
2022/12/06 08:20:32;;;;;;;8.43;7.77;;;;;;;32.24;58.55;100395.66;5084324;27;69399;-37
2022/12/06 08:23:04;;;;;;;12.40;8.57;;;;;;;32.57;58.59;100450.34;5086589;27;66254;-35
2022/12/06 08:25:35;;;;;;;9.80;8.17;;;;;;;32.53;58.43;100451.91;5088646;27;71555;-36
2022/12/06 08:28:06;;;;;;;9.18;7.93;;;;;;;32.59;58.40;100454.47;5079886;27;66493;-34
2022/12/06 08:30:41;;;;;;;9.88;8.48;;;;;;;32.59;58.37;100453.63;5084623;27;69392;-35
2022/12/06 08:33:12;;;;;;;9.38;8.57;;;;;;;32.66;58.45;100462.47;5083039;27;66618;-34
2022/12/06 08:35:43;;;;;;;9.53;8.63;;;;;;;32.66;58.15;100471.44;5085128;27;71030;-34
2022/12/06 08:38:15;;;;;;;8.80;8.00;;;;;;;32.69;58.17;100467.41;5084745;27;65765;-36
2022/12/06 08:40:45;;;;;;;;;;;;;;;32.42;58.58;100458.97;5084982;27;70534;-35
2022/12/06 08:43:17;;;;;;;8.75;7.95;;;;;;;32.71;58.39;100457.16;5082353;27;66679;-35
2022/12/06 08:45:51;;;;;;;9.50;8.60;;;;;;;32.72;58.13;100453.34;5083710;27;69901;-36
2022/12/06 08:48:23;;;;;;;10.38;9.57;;;;;;;32.61;58.20;100436.03;5080383;27;65611;-36
2022/12/06 08:50:54;;;;;;;9.40;8.48;;;;;;;32.71;58.20;100447.09;5083747;27;69990;-34
2022/12/06 08:53:25;;;;;;;8.50;7.70;;;;;;;32.78;58.20;100443.41;5085878;27;66157;-36
2022/12/06 08:55:57;;;;;;;10.25;8.82;;;;;;;32.79;58.28;100443.19;5086187;27;69891;-38
2022/12/06 08:58:31;;;;;;;10.98;8.50;;;;;;;32.82;58.36;100448.13;5081642;27;65466;-37
2022/12/06 09:01:12;;;;;;;10.55;8.23;;;;;;;32.22;58.12;100362.50;5090599;27;70123;-35
2022/12/06 09:03:43;;;;;;;9.05;8.15;;;;;;;32.83;58.26;100466.06;5089077;27;66589;-35
2022/12/06 09:06:15;;;;;;;14.82;7.47;;;;;;;32.71;58.27;100451.72;5092938;27;68704;-35
2022/12/06 09:08:47;;;;;;;13.02;8.55;;;;;;;32.82;58.36;100464.41;5081232;27;66815;-35
2022/12/06 09:11:19;;;;;;;8.80;7.90;;;;;;;32.46;58.19;100404.00;5086039;27;69665;-35
2022/12/06 09:13:50;;;;;;;11.10;7.65;;;;;;;32.86;58.24;100470.19;5080903;27;66589;-36
2022/12/06 09:16:23;;;;;;;15.45;7.55;;;;;;;32.86;58.26;100473.72;5081576;27;70116;-36
2022/12/06 09:18:54;;;;;;;8.60;7.55;;;;;;;32.89;58.15;100475.94;5084008;27;65681;-35
2022/12/06 09:21:31;;;;;;;21.20;7.90;;;;;;;32.80;58.60;100491.00;5082143;27;69214;-35
2022/12/06 09:24:02;;;;;;;15.68;8.27;;;;;;;32.68;59.83;100495.63;5085168;27;64398;-36
2022/12/06 09:26:34;;;;;;;12.17;7.00;;;;;;;32.57;60.43;100504.63;5081186;27;69800;-34
2022/12/06 09:29:06;;;;;;;7.82;6.85;;;;;;;32.30;61.15;100472.59;5086937;27;66382;-34
2022/12/06 09:31:39;;;;;;;19.45;7.35;;;;;;;32.44;61.67;100495.69;5082506;27;70299;-36
2022/12/06 09:34:11;;;;;;;8.77;7.00;;;;;;;32.41;62.02;100507.03;5082806;27;67138;-35
2022/12/06 09:36:55;;;;;;;19.25;6.93;;;;;;;32.40;62.39;100521.69;5084700;27;68906;-36
2022/12/06 09:39:37;;;;;;;14.35;6.22;;;;;;;31.81;62.45;100431.34;5086603;27;64320;-37
2022/12/06 09:42:33;;;;;;;8.70;6.00;;;;;;;32.31;63.09;100528.50;5087064;27;70177;-35
2022/12/06 09:45:25;;;;;;;10.93;6.15;;;;;;;32.33;63.37;100523.69;5084468;27;66448;-37
2022/12/06 09:48:14;;;;;;;9.60;5.78;;;;;;;31.79;63.58;100450.59;5082721;27;69626;-33
2022/12/06 09:51:11;;;;;;;11.43;5.63;;;;;;;32.29;63.44;100530.66;5083983;27;66620;-35
2022/12/06 09:54:12;;;;;;;12.75;6.10;;;;;;;31.30;64.00;100378.66;5085838;27;68316;-34
2022/12/06 09:57:16;;;;;;;8.82;5.57;;;;;;;32.21;63.88;100533.75;5099260;27;65638;-34
2022/12/06 10:00:07;;;;;;;7.18;6.43;;;;;;;32.11;64.23;100533.50;5083780;27;70389;-37
2022/12/06 10:02:58;;;;;;;6.50;5.65;;;;;;;32.19;64.72;100552.16;5086481;27;66397;-37
2022/12/06 10:05:37;;;;;;;18.05;6.10;;;;;;;32.22;64.57;100557.09;5086728;27;70391;-37
2022/12/06 10:08:23;;;;;;;7.78;6.13;;;;;;;32.18;64.60;100556.75;5086430;27;66152;-39
2022/12/06 10:11:30;;;;;;;11.88;5.57;;;;;;;32.12;64.88;100567.72;5088177;27;70559;-35
2022/12/06 10:14:28;;;;;;;9.40;5.53;;;;;;;32.17;64.86;100565.13;5089703;27;65514;-35
2022/12/06 10:17:27;;;;;;;14.93;6.80;;;;;;;32.11;65.15;100566.06;5088371;27;69197;-36
2022/12/06 10:20:00;;;;;;;12.45;6.82;;;;;;;32.19;65.15;100563.00;5087323;27;66896;-35
2022/12/06 10:22:41;;;;;;;17.17;6.25;;;;;;;32.19;65.20;100563.00;5088330;27;70401;-37
2022/12/06 10:25:24;;;;;;;21.08;7.00;;;;;;;32.19;65.79;100560.28;5088315;27;66293;-36
2022/12/06 10:28:10;;;;;;;11.63;7.60;;;;;;;32.17;65.93;100571.38;5076499;27;69593;-36
2022/12/06 10:31:12;;;;;;;14.02;6.75;;;;;;;31.94;66.27;100558.63;5076040;27;66538;-36
2022/12/06 10:33:55;;;;;;;14.40;6.20;;;;;;;32.12;66.53;100594.84;5082715;27;69438;-35
2022/12/06 10:36:53;;;;;;;15.85;6.43;;;;;;;32.08;66.74;100604.53;5078179;27;65438;-37
2022/12/06 10:39:43;;;;;;;10.98;6.78;;;;;;;32.19;66.49;100609.13;5079011;27;69315;-39
2022/12/06 10:42:26;;;;;;;11.48;5.70;;;;;;;32.18;66.74;100604.75;5082152;27;65284;-37
2022/12/06 10:49:13;;;;;;;12.68;6.43;;;;;;;32.13;67.14;100599.22;5076725;27;65970;-36
2022/12/06 10:52:00;;;;;;;15.07;6.75;;;;;;;32.27;66.28;100590.59;5015391;28;70370;-36
2022/12/06 10:54:50;;;;;;;16.50;6.50;;;;;;;32.28;65.52;100577.84;5076523;27;65805;-37
2022/12/06 10:57:45;;;;;;;11.20;5.43;;;;;;;32.39;65.01;100590.59;5083829;27;70206;-36
2022/12/06 11:00:18;;;;;;;8.88;5.90;;;;;;;31.99;64.84;100526.19;5086971;27;66473;-36
2022/12/06 11:03:33;;;;;;;13.20;6.30;;;;;;;32.35;65.05;100605.72;5084932;27;70187;-37
2022/12/06 11:06:26;;;;;;;10.48;6.35;;;;;;;31.77;64.63;100503.41;5086598;27;66767;-37
2022/12/06 11:09:10;;;;;;;9.13;6.38;;;;;;;32.47;64.07;100620.13;5090853;27;69061;-37
2022/12/06 11:11:43;;;;;;;6.80;5.70;;;;;;;32.51;64.19;100627.78;5075871;27;66500;-36
2022/12/06 11:14:35;;;;;;;16.85;5.80;;;;;;;32.48;64.46;100639.94;5091128;27;69609;-36
2022/12/06 11:17:19;;;;;;;;;;;;;;;32.21;65.59;100648.53;5086992;27;66349;-35
2022/12/06 11:20:10;;;;;;;13.68;6.22;;;;;;;32.41;64.48;100659.06;5094500;27;69979;-36
2022/12/06 11:22:50;;;;;;;10.00;5.30;;;;;;;32.48;64.69;100653.53;5085957;27;64987;-35
2022/12/06 11:25:34;;;;;;;19.48;5.63;;;;;;;32.39;65.14;100639.44;5080198;27;69188;-36
2022/12/06 11:28:33;;;;;;;20.27;6.88;;;;;;;32.01;65.04;100578.34;5085668;27;65305;-35
2022/12/06 11:31:33;;;;;;;12.55;5.20;;;;;;;32.44;65.02;100658.56;5079060;27;70071;-36
2022/12/06 11:34:19;;;;;;;13.15;5.90;;;;;;;32.53;64.76;100664.50;5084023;27;65370;-36
2022/12/06 11:36:53;;;;;;;11.98;6.13;;;;;;;32.52;64.72;100662.03;5088879;27;70559;-36
2022/12/06 11:39:30;;;;;;;11.57;5.68;;;;;;;32.53;64.86;100669.13;5085892;27;66447;-36
2022/12/06 11:42:03;;;;;;;10.18;5.55;;;;;;;32.13;64.83;100596.50;5083001;27;69525;-37
2022/12/06 11:44:46;;;;;;;6.32;5.32;;;;;;;32.07;64.82;100594.72;5084941;27;66383;-35
2022/12/06 11:47:31;;;;;;;9.68;5.95;;;;;;;32.52;65.01;100681.03;5085041;27;69966;-36
2022/12/06 11:50:02;;;;;;;;;;;;;;;32.24;65.91;100696.09;5086829;27;65760;-37
2022/12/06 11:53:21;;;;;;;11.85;5.70;;;;;;;32.38;65.25;100713.81;5081496;27;70714;-36
2022/12/06 11:55:56;;;;;;;7.45;5.50;;;;;;;32.52;64.84;100719.88;5058900;27;65453;-37
2022/12/06 11:59:15;;;;;;;6.72;6.10;;;;;;;32.36;64.90;100725.97;5081555;27;69411;-37
2022/12/06 12:01:51;;;;;;;9.07;6.03;;;;;;;32.45;64.53;100714.50;5013166;28;66705;-37
2022/12/06 12:04:39;;;;;;;11.07;6.30;;;;;;;32.44;64.73;100731.06;5014320;28;70209;-36
2022/12/06 12:07:21;;;;;;;9.75;6.40;;;;;;;32.37;64.46;100714.03;5074247;27;65723;-36
2022/12/06 12:09:59;;;;;;;7.40;6.60;;;;;;;32.49;64.60;100745.63;5086521;27;70447;-37
2022/12/06 12:15:37;;;;;;;9.13;6.20;;;;;;;32.43;64.54;100757.38;5086850;27;70146;-38
2022/12/06 12:18:23;;;;;;;6.53;5.95;;;;;;;32.42;64.86;100774.72;5086777;27;66232;-38
2022/12/06 12:20:56;;;;;;;6.10;5.18;;;;;;;31.86;64.64;100674.75;5088346;27;69691;-36
2022/12/06 12:23:32;;;;;;;7.80;5.75;;;;;;;32.51;64.91;100782.56;5083872;27;66025;-36
2022/12/06 12:26:18;;;;;;;8.35;5.90;;;;;;;32.35;65.16;100770.47;5084473;27;70200;-35
2022/12/06 12:29:13;;;;;;;6.90;6.30;;;;;;;32.34;66.73;100788.63;5085105;27;66319;-37
2022/12/06 12:31:58;;;;;;;7.70;6.60;;;;;;;32.26;67.99;100788.97;5082173;27;69213;-36
2022/12/06 12:34:30;;;;;;;6.75;6.15;;;;;;;32.23;68.89;100789.41;5105203;27;66094;-36
2022/12/06 12:37:04;;;;;;;9.82;6.78;;;;;;;32.17;68.96;100796.59;5085526;27;69177;-38